Time;durP1;ratioP1;P1;durP2;ratioP2;P2;SDS_P1;SDS_P2;PMS_P1;PMS_P2;Temp;Humidity;BMP_temperature;BMP_pressure;BME280_temperature;BME280_humidity;BME280_pressure;Samples;Min_cycle;Max_cycle;Signal;HPM_P1;HPM_P2
2021/11/09 00:01:19;;;;;;;15.82;10.75;;;3.10;99.90;;;;;;5055265;28;20249;-80
2021/11/09 00:03:50;;;;;;;19.88;13.32;;;3.10;99.90;;;;;;5055299;28;20299;-81
2021/11/09 00:06:22;;;;;;;14.20;11.50;;;3.10;99.90;;;;;;5033947;28;20218;-80
2021/11/09 00:08:56;;;;;;;13.95;11.20;;;3.00;99.90;;;;;;5020629;28;20210;-81
2021/11/09 00:11:23;;;;;;;11.70;10.05;;;3.00;99.90;;;;;;5022048;28;20771;-82
2021/11/09 00:13:50;;;;;;;12.65;11.10;;;3.00;99.90;;;;;;5041132;28;20209;-80
2021/11/09 00:16:17;;;;;;;13.98;11.75;;;3.00;99.90;;;;;;5039751;28;20601;-81
2021/11/09 00:18:45;;;;;;;16.08;11.82;;;3.00;99.90;;;;;;5036215;28;20213;-82
2021/11/09 00:21:13;;;;;;;14.93;13.52;;;3.00;99.90;;;;;;5037843;28;20232;-81
2021/11/09 00:23:40;;;;;;;14.93;10.70;;;2.90;99.90;;;;;;5042633;28;20216;-81
2021/11/09 00:26:07;;;;;;;13.75;10.82;;;2.90;99.90;;;;;;5042328;28;20232;-81
2021/11/09 00:28:34;;;;;;;14.40;11.07;;;2.90;99.90;;;;;;5016452;28;20238;-82
2021/11/09 00:31:01;;;;;;;15.35;10.50;;;2.90;99.90;;;;;;5035303;28;20236;-82
2021/11/09 00:33:29;;;;;;;11.80;10.27;;;2.90;99.90;;;;;;5035502;28;20213;-82
2021/11/09 00:35:56;;;;;;;16.60;12.80;;;2.90;99.90;;;;;;5036318;28;20213;-82
2021/11/09 00:38:25;;;;;;;13.55;10.40;;;2.80;99.90;;;;;;5036018;28;20211;-82
2021/11/09 00:40:51;;;;;;;13.65;11.48;;;2.80;99.90;;;;;;5019720;28;20229;-81
2021/11/09 00:43:19;;;;;;;12.88;11.18;;;2.80;99.90;;;;;;5028990;28;20205;-82
2021/11/09 00:45:47;;;;;;;14.98;10.50;;;2.80;99.90;;;;;;5036024;28;20256;-82
2021/11/09 00:48:14;;;;;;;16.00;12.90;;;2.80;99.90;;;;;;5035211;28;20214;-82
2021/11/09 00:50:42;;;;;;;14.65;10.98;;;2.70;99.90;;;;;;5036113;28;20235;-82
2021/11/09 00:53:11;;;;;;;13.07;11.77;;;2.70;99.90;;;;;;5024318;28;20201;-81
2021/11/09 00:55:41;;;;;;;14.80;11.45;;;2.70;99.90;;;;;;5015969;28;20565;-81
2021/11/09 00:58:08;;;;;;;14.27;12.55;;;2.80;99.90;;;;;;5026594;28;20203;-82
2021/11/09 01:00:36;;;;;;;13.30;11.23;;;2.80;99.90;;;;;;5035262;28;20228;-82
2021/11/09 01:03:05;;;;;;;15.38;12.50;;;2.80;99.90;;;;;;5035331;28;20216;-81
2021/11/09 01:05:34;;;;;;;18.05;12.95;;;2.70;99.90;;;;;;5035439;28;20595;-82
2021/11/09 01:08:02;;;;;;;14.88;11.10;;;2.70;99.90;;;;;;5027808;28;20202;-81
2021/11/09 01:10:32;;;;;;;14.02;10.57;;;2.70;99.90;;;;;;5015514;28;20203;-82
2021/11/09 01:13:00;;;;;;;18.48;11.73;;;2.70;99.90;;;;;;5015601;28;20696;-81
2021/11/09 01:15:27;;;;;;;19.60;12.77;;;2.70;99.90;;;;;;5019219;28;20788;-81
2021/11/09 01:17:54;;;;;;;16.15;12.57;;;2.80;99.90;;;;;;5035618;28;20226;-82
2021/11/09 01:20:23;;;;;;;13.80;12.32;;;2.70;99.90;;;;;;5035133;28;20225;-82
2021/11/09 01:22:52;;;;;;;18.73;13.05;;;2.80;99.90;;;;;;5035077;28;20202;-82
2021/11/09 01:25:20;;;;;;;15.77;10.88;;;2.80;99.90;;;;;;5034794;28;20334;-82
2021/11/09 01:27:47;;;;;;;12.75;11.45;;;2.90;99.90;;;;;;5035750;28;20202;-82
2021/11/09 01:30:17;;;;;;;15.32;11.10;;;2.90;99.90;;;;;;5035942;28;20208;-81
2021/11/09 01:32:44;;;;;;;14.18;11.32;;;2.90;99.90;;;;;;5020730;28;20204;-81
2021/11/09 01:35:12;;;;;;;14.43;12.18;;;3.00;99.90;;;;;;5021290;28;20214;-82
2021/11/09 01:37:39;;;;;;;19.80;12.45;;;2.90;99.90;;;;;;5040585;28;20221;-82
2021/11/09 01:40:07;;;;;;;12.23;10.93;;;2.90;99.90;;;;;;5023039;28;20296;-82
2021/11/09 01:42:35;;;;;;;15.88;14.13;;;3.00;99.90;;;;;;5019119;28;20243;-82
2021/11/09 01:45:03;;;;;;;13.77;10.88;;;3.10;99.90;;;;;;5034640;28;20210;-82
2021/11/09 01:47:31;;;;;;;16.38;9.70;;;3.10;99.90;;;;;;5038758;28;20237;-82
2021/11/09 01:49:58;;;;;;;15.00;11.82;;;3.10;99.90;;;;;;5038488;28;20214;-81
2021/11/09 01:52:25;;;;;;;13.80;11.65;;;3.10;99.90;;;;;;5038701;28;20230;-81
2021/11/09 01:54:52;;;;;;;13.77;10.70;;;3.10;99.90;;;;;;5038786;28;20205;-81
2021/11/09 01:57:18;;;;;;;17.90;12.07;;;3.20;99.90;;;;;;5038922;28;20201;-82
2021/11/09 01:59:46;;;;;;;14.95;12.55;;;3.20;99.90;;;;;;5039068;28;20207;-82
2021/11/09 02:02:13;;;;;;;16.65;12.10;;;3.20;99.90;;;;;;5038541;28;20230;-82
2021/11/09 02:04:41;;;;;;;21.25;13.63;;;3.20;99.90;;;;;;5028680;28;20209;-81
2021/11/09 02:07:08;;;;;;;20.00;13.40;;;3.30;99.90;;;;;;5018957;28;20231;-81
2021/11/09 02:09:34;;;;;;;13.00;11.63;;;3.20;99.90;;;;;;5017317;28;20217;-82
2021/11/09 02:12:01;;;;;;;16.27;11.25;;;3.20;99.90;;;;;;5023395;28;20251;-82
2021/11/09 02:14:28;;;;;;;15.65;14.00;;;3.20;99.90;;;;;;5038917;28;20206;-81
2021/11/09 02:16:55;;;;;;;16.27;12.98;;;3.20;99.90;;;;;;5034593;28;20205;-82
2021/11/09 02:19:22;;;;;;;19.30;13.40;;;3.30;99.90;;;;;;5021170;28;20210;-81
2021/11/09 02:21:50;;;;;;;15.77;12.05;;;3.40;99.90;;;;;;5022790;28;20719;-82
2021/11/09 02:24:16;;;;;;;13.57;12.18;;;3.40;99.90;;;;;;5038683;28;20220;-81
2021/11/09 02:26:43;;;;;;;15.75;12.20;;;3.40;99.90;;;;;;5036807;28;20230;-82
2021/11/09 02:29:10;;;;;;;12.77;11.10;;;3.40;99.90;;;;;;5018270;28;20214;-81
2021/11/09 02:31:37;;;;;;;20.30;11.50;;;3.50;99.90;;;;;;5018492;28;20236;-81
2021/11/09 02:34:04;;;;;;;13.85;12.05;;;3.50;99.90;;;;;;5037834;28;20214;-81
2021/11/09 02:36:31;;;;;;;13.95;12.55;;;3.60;99.90;;;;;;5038078;28;20293;-83
2021/11/09 02:38:59;;;;;;;16.83;14.43;;;3.60;99.90;;;;;;5037710;28;20218;-82
2021/11/09 02:41:26;;;;;;;14.50;12.05;;;3.70;99.90;;;;;;5025751;28;20232;-82
2021/11/09 02:43:56;;;;;;;16.35;12.60;;;3.70;99.90;;;;;;5036622;28;20633;-83
2021/11/09 02:46:44;;;;;;;14.60;12.00;;;3.70;99.90;;;;;;5037509;28;20718;-82
2021/11/09 02:49:19;;;;;;;14.32;10.95;;;3.70;99.90;;;;;;5021507;28;20203;-81
2021/11/09 02:51:48;;;;;;;13.20;11.80;;;3.80;99.90;;;;;;5017419;28;20226;-82
2021/11/09 02:54:21;;;;;;;14.60;11.75;;;3.80;99.90;;;;;;5017914;28;20693;-82
2021/11/09 02:56:52;;;;;;;13.85;11.55;;;3.80;99.90;;;;;;5018250;28;20190;-82
2021/11/09 02:59:30;;;;;;;12.90;11.23;;;3.80;99.90;;;;;;5033723;28;20215;-81
2021/11/09 03:02:00;;;;;;;13.82;11.20;;;3.90;99.90;;;;;;5037045;28;20230;-82
2021/11/09 03:04:40;;;;;;;13.15;11.85;;;3.90;99.90;;;;;;5020170;28;20199;-82
2021/11/09 03:07:10;;;;;;;18.92;12.23;;;3.90;99.90;;;;;;5017144;28;20236;-82
2021/11/09 03:09:44;;;;;;;14.88;12.77;;;3.90;99.90;;;;;;5017415;28;20209;-81
2021/11/09 03:12:12;;;;;;;14.55;11.80;;;3.90;99.90;;;;;;5017551;28;20293;-81
2021/11/09 03:14:40;;;;;;;13.57;12.18;;;4.00;99.90;;;;;;5019234;28;20218;-81
2021/11/09 03:17:14;;;;;;;16.83;12.48;;;4.00;99.90;;;;;;5021850;28;20218;-82
2021/11/09 03:19:44;;;;;;;18.55;10.52;;;3.90;99.90;;;;;;5040050;28;20198;-81
2021/11/09 03:44:27;;;;;;;17.25;11.93;;;3.50;99.90;;;;;;5036639;28;20842;-82
2021/11/09 03:46:58;;;;;;;12.88;11.65;;;3.40;99.90;;;;;;5026674;28;20239;-81
2021/11/09 03:49:27;;;;;;;15.48;12.73;;;3.40;99.90;;;;;;5015933;28;20213;-82
2021/11/09 03:51:55;;;;;;;12.07;10.38;;;3.40;99.90;;;;;;5016236;28;20726;-82
2021/11/09 03:54:27;;;;;;;15.30;11.02;;;3.20;99.90;;;;;;5016525;28;20233;-81
2021/11/09 03:57:00;;;;;;;15.00;9.82;;;3.20;99.90;;;;;;5016824;28;20232;-81
2021/11/09 03:59:38;;;;;;;15.38;11.30;;;3.20;99.90;;;;;;5016331;28;20197;-81
2021/11/09 04:02:14;;;;;;;18.23;11.75;;;3.10;99.90;;;;;;5017783;28;20273;-81
2021/11/09 04:04:45;;;;;;;12.85;10.98;;;3.10;99.90;;;;;;5016626;28;20203;-82
2021/11/09 04:07:15;;;;;;;12.73;10.68;;;3.10;99.90;;;;;;5016489;28;20253;-82
2021/11/09 04:15:26;;;;;;;13.80;9.95;;;3.00;99.90;;;;;;5030160;28;20282;-82
2021/11/09 04:18:05;;;;;;;17.23;11.18;;;3.00;99.90;;;;;;5016056;28;20199;-82
2021/11/09 04:20:39;;;;;;;14.20;10.45;;;2.90;99.90;;;;;;5015909;28;20280;-81
2021/11/09 04:29:01;;;;;;;17.38;10.68;;;2.80;99.90;;;;;;5014717;28;20246;-81
2021/11/09 04:31:51;;;;;;;11.75;10.60;;;2.60;99.90;;;;;;5015994;28;20292;-83
2021/11/09 04:48:55;;;;;;;11.15;9.35;;;2.50;99.90;;;;;;5015894;28;20231;-82
2021/11/09 04:51:42;;;;;;;15.93;10.90;;;2.50;99.90;;;;;;5016376;28;20270;-80
2021/11/09 05:02:42;;;;;;;15.25;10.50;;;2.40;99.90;;;;;;5016067;28;20254;-81
2021/11/09 05:16:18;;;;;;;11.73;10.18;;;2.30;99.90;;;;;;4996567;28;20680;-86
2021/11/09 05:22:19;;;;;;;13.07;11.60;;;2.20;99.90;;;;;;4999080;28;20297;-86
2021/11/09 05:27:46;;;;;;;12.23;11.07;;;2.20;99.90;;;;;;5016411;28;20227;-84
2021/11/09 05:30:34;;;;;;;14.10;12.57;;;2.10;99.90;;;;;;5017586;28;20578;-84
2021/11/09 05:36:04;;;;;;;12.13;10.82;;;2.10;99.90;;;;;;5016807;28;20277;-84
2021/11/09 05:39:07;;;;;;;12.55;11.25;;;2.10;99.90;;;;;;5017285;28;20207;-84
2021/11/09 05:41:39;;;;;;;12.23;10.88;;;2.10;99.90;;;;;;5017431;28;20236;-85
2021/11/09 05:44:07;;;;;;;18.33;12.77;;;2.10;99.90;;;;;;5016740;28;20563;-84
2021/11/09 05:46:35;;;;;;;16.75;11.15;;;2.10;99.90;;;;;;5017019;28;20236;-84
2021/11/09 05:49:05;;;;;;;15.63;12.30;;;2.10;99.90;;;;;;5016806;28;20213;-84
2021/11/09 05:51:35;;;;;;;13.05;11.68;;;2.10;99.90;;;;;;5017493;28;20323;-84
2021/11/09 05:54:04;;;;;;;13.68;11.98;;;2.10;99.90;;;;;;5017438;28;20215;-84
2021/11/09 05:56:32;;;;;;;13.30;10.63;;;2.10;99.90;;;;;;5017891;28;20310;-84
2021/11/09 05:59:01;;;;;;;11.80;10.60;;;2.00;99.90;;;;;;5017420;28;20239;-85
2021/11/09 06:01:30;;;;;;;17.92;14.75;;;2.00;99.90;;;;;;5016822;28;20231;-85
2021/11/09 06:04:00;;;;;;;15.52;12.88;;;2.00;99.90;;;;;;5019015;28;20259;-85
2021/11/09 06:06:26;;;;;;;17.85;14.18;;;2.00;99.90;;;;;;5020154;28;20203;-85
2021/11/09 06:08:55;;;;;;;20.27;16.85;;;2.00;99.90;;;;;;5018786;28;20235;-84
2021/11/09 06:11:25;;;;;;;20.60;14.88;;;2.00;99.90;;;;;;5017297;28;20654;-84
2021/11/09 06:13:51;;;;;;;21.08;16.30;;;2.00;99.90;;;;;;5017236;28;20240;-84
2021/11/09 06:16:18;;;;;;;15.30;13.15;;;2.00;99.90;;;;;;5017156;28;20211;-84
2021/11/09 06:18:45;;;;;;;16.38;14.00;;;2.00;99.90;;;;;;5017027;28;20643;-84
2021/11/09 06:21:12;;;;;;;19.38;14.10;;;2.00;99.90;;;;;;5016923;28;20229;-84
2021/11/09 06:23:43;;;;;;;14.57;11.35;;;1.90;99.90;;;;;;5019595;28;20638;-85
2021/11/09 06:26:16;;;;;;;13.88;12.35;;;2.00;99.90;;;;;;5020252;28;20207;-84
2021/11/09 06:28:48;;;;;;;19.95;13.60;;;2.00;99.90;;;;;;5019916;28;20263;-84
2021/11/09 06:31:14;;;;;;;13.93;12.05;;;2.00;99.90;;;;;;5020316;28;20246;-85
2021/11/09 06:33:43;;;;;;;15.20;12.88;;;2.00;99.90;;;;;;5020096;28;20211;-85
2021/11/09 06:36:10;;;;;;;15.07;11.57;;;2.00;99.90;;;;;;5019477;28;20272;-84
2021/11/09 06:38:46;;;;;;;15.88;11.30;;;2.00;99.90;;;;;;5019422;28;20209;-84
2021/11/09 06:41:14;;;;;;;15.90;11.88;;;2.00;99.90;;;;;;5019959;28;20288;-84
2021/11/09 06:43:41;;;;;;;19.17;11.90;;;2.00;99.90;;;;;;5019770;28;20680;-84
2021/11/09 06:46:13;;;;;;;18.73;11.65;;;2.00;99.90;;;;;;5020184;28;20298;-84
2021/11/09 06:48:46;;;;;;;15.38;12.35;;;2.10;99.90;;;;;;5020062;28;20215;-84
2021/11/09 06:51:14;;;;;;;16.02;13.45;;;2.10;99.90;;;;;;5020097;28;20219;-84
2021/11/09 06:53:43;;;;;;;17.05;13.55;;;2.10;99.90;;;;;;5019517;28;20211;-84
2021/11/09 06:56:10;;;;;;;15.85;13.25;;;2.00;99.90;;;;;;5019789;28;20255;-85
2021/11/09 06:58:39;;;;;;;17.98;13.70;;;2.00;99.90;;;;;;5025245;28;20255;-85
2021/11/09 07:01:06;;;;;;;19.08;12.65;;;2.00;99.90;;;;;;5040357;28;20264;-85
2021/11/09 07:03:36;;;;;;;16.90;12.43;;;2.00;99.90;;;;;;5039938;28;20255;-85
2021/11/09 07:06:08;;;;;;;14.57;12.07;;;2.10;99.90;;;;;;5039747;28;20184;-85
2021/11/09 07:08:46;;;;;;;17.75;12.73;;;2.20;99.90;;;;;;5039317;28;20216;-85
2021/11/09 07:14:22;;;;;;;18.98;14.38;;;2.20;99.90;;;;;;5016147;28;20216;-85
2021/11/09 07:17:23;;;;;;;18.27;16.45;;;2.20;99.90;;;;;;5021596;28;20253;-84
2021/11/09 07:20:28;;;;;;;18.17;14.88;;;2.30;99.90;;;;;;5023876;28;20204;-86
2021/11/09 07:23:03;;;;;;;21.65;14.65;;;2.30;99.90;;;;;;5024448;28;20234;-85
2021/11/09 07:25:43;;;;;;;15.52;13.57;;;2.40;99.90;;;;;;5024235;28;20240;-85
2021/11/09 07:28:16;;;;;;;16.25;13.32;;;2.50;99.90;;;;;;5022397;28;20221;-85
2021/11/09 07:34:38;;;;;;;19.85;16.08;;;2.70;99.90;;;;;;4979814;28;20205;-85
2021/11/09 07:37:20;;;;;;;20.13;15.20;;;2.80;99.90;;;;;;4974011;28;20213;-85
2021/11/09 07:40:01;;;;;;;23.75;15.73;;;2.90;99.90;;;;;;4985994;28;20224;-85
2021/11/09 07:51:33;;;;;;;15.00;12.93;;;3.60;99.90;;;;;;5000665;28;20235;-85
2021/11/09 07:54:01;;;;;;;15.80;12.10;;;3.70;99.90;;;;;;5021298;28;20203;-85
2021/11/09 07:56:31;;;;;;;15.43;10.38;;;3.70;99.90;;;;;;5029303;28;20206;-85
2021/11/09 07:59:10;;;;;;;11.40;10.25;;;3.80;99.90;;;;;;5035627;28;20191;-85
2021/11/09 08:01:41;;;;;;;14.05;8.70;;;3.90;99.90;;;;;;5041980;28;20229;-85
2021/11/09 08:04:12;;;;;;;8.05;7.25;;;4.10;99.90;;;;;;5024758;28;20202;-85
2021/11/09 08:06:47;;;;;;;11.48;8.20;;;4.20;99.90;;;;;;5014869;28;20202;-86
2021/11/09 08:09:21;;;;;;;7.55;6.28;;;4.30;99.90;;;;;;4997421;28;20219;-86
2021/11/09 08:11:49;;;;;;;14.82;8.27;;;4.40;99.90;;;;;;5007065;28;20234;-86
2021/11/09 08:14:36;;;;;;;9.52;7.15;;;4.50;99.90;;;;;;5019576;28;20218;-83
2021/11/09 08:17:06;;;;;;;10.15;5.82;;;4.70;99.90;;;;;;5016104;28;20746;-83
2021/11/09 08:19:39;;;;;;;8.90;6.03;;;4.80;99.90;;;;;;5017049;28;20199;-83
2021/11/09 08:22:11;;;;;;;11.10;7.25;;;4.90;99.90;;;;;;5017757;28;20293;-83
2021/11/09 08:25:11;;;;;;;10.18;6.57;;;5.00;99.90;;;;;;5017745;28;20230;-84
2021/11/09 08:27:47;;;;;;;7.75;6.18;;;5.20;99.90;;;;;;5015305;28;20600;-83
2021/11/09 08:30:21;;;;;;;6.93;4.63;;;5.20;99.90;;;;;;5016752;28;20664;-82
2021/11/09 08:32:49;;;;;;;8.57;7.78;;;5.30;99.90;;;;;;5019368;28;20309;-84
2021/11/09 08:44:05;;;;;;;4.88;4.32;;;5.60;99.90;;;;;;5016830;28;20273;-83
2021/11/09 08:46:35;;;;;;;10.13;5.22;;;5.80;99.90;;;;;;5019377;28;20210;-83
2021/11/09 08:49:03;;;;;;;8.88;4.30;;;5.90;99.90;;;;;;5018543;28;20300;-83
2021/11/09 08:51:30;;;;;;;4.55;4.22;;;6.00;99.90;;;;;;5020468;28;20233;-85
2021/11/09 08:54:09;;;;;;;5.63;4.50;;;6.20;99.90;;;;;;5019489;28;20205;-85
2021/11/09 08:56:51;;;;;;;7.43;4.32;;;6.30;99.90;;;;;;5017875;28;20238;-84
2021/11/09 09:54:07;;;;;;;4.80;3.70;;;8.20;99.90;;;;;;5017618;28;20258;-85
2021/11/09 09:56:42;;;;;;;4.63;4.22;;;8.30;99.90;;;;;;5018313;28;20250;-84
2021/11/09 09:59:11;;;;;;;6.05;4.95;;;8.40;99.90;;;;;;5021897;28;20219;-85
2021/11/09 10:01:39;;;;;;;7.15;4.32;;;8.70;99.90;;;;;;5023209;28;20219;-85
2021/11/09 10:04:29;;;;;;;9.07;5.35;;;8.70;99.90;;;;;;5021544;28;20214;-86
2021/11/09 10:06:58;;;;;;;4.60;4.00;;;8.90;99.90;;;;;;5021360;28;20294;-86
2021/11/09 10:09:40;;;;;;;6.63;4.45;;;8.90;99.90;;;;;;5025191;28;20223;-86
2021/11/09 10:13:08;;;;;;;4.47;4.05;;;9.10;99.90;;;;;;5067259;22;20242;-86
2021/11/09 10:15:47;;;;;;;5.00;4.43;;;9.30;99.90;;;;;;5063739;28;20190;-85
2021/11/09 10:18:16;;;;;;;5.20;3.78;;;9.40;99.90;;;;;;5060871;28;20213;-85
2021/11/09 10:20:48;;;;;;;7.47;4.10;;;9.60;99.90;;;;;;5046905;28;20216;-86
2021/11/09 10:24:06;;;;;;;7.47;4.22;;;9.80;99.70;;;;;;5040187;28;20504;-87
2021/11/09 10:26:39;;;;;;;4.13;3.72;;;9.90;99.20;;;;;;4958131;29;20307;-86
2021/11/09 10:29:36;;;;;;;5.70;4.17;;;10.10;98.60;;;;;;4957014;29;20223;-87
2021/11/09 10:32:11;;;;;;;7.20;4.80;;;10.30;98.40;;;;;;5011390;28;20562;-87
2021/11/09 10:34:38;;;;;;;5.50;3.60;;;10.60;97.30;;;;;;5038522;28;20463;-86
2021/11/09 10:37:16;;;;;;;7.93;5.13;;;11.10;97.10;;;;;;5038229;28;20479;-84
2021/11/09 10:39:46;;;;;;;6.87;5.43;;;11.70;96.30;;;;;;5034852;28;20837;-87
2021/11/09 10:42:15;;;;;;;4.10;3.80;;;12.40;95.00;;;;;;5039403;28;20841;-84
2021/11/09 10:44:44;;;;;;;3.87;3.57;;;12.90;93.50;;;;;;5039163;28;20449;-84
2021/11/09 10:47:23;;;;;;;6.03;4.23;;;13.60;92.30;;;;;;5039189;28;20977;-84
2021/11/09 10:49:52;;;;;;;8.90;6.20;;;14.00;91.00;;;;;;5040461;28;20477;-83
2021/11/09 10:52:24;;;;;;;7.03;5.33;;;14.20;90.20;;;;;;5039067;28;20560;-83
2021/11/09 10:54:57;;;;;;;4.73;3.63;;;14.70;90.00;;;;;;5039253;28;20438;-83
2021/11/09 10:57:40;;;;;;;5.47;5.00;;;15.40;87.20;;;;;;5040422;28;20515;-83
2021/11/09 11:00:21;;;;;;;4.33;3.30;;;15.50;83.20;;;;;;5042044;28;20808;-83
2021/11/09 11:05:32;;;;;;;5.33;3.63;;;16.10;83.10;;;;;;5040067;28;20487;-83
2021/11/09 11:08:00;;;;;;;5.77;3.50;;;16.10;79.20;;;;;;5038601;28;20489;-83
2021/11/09 11:10:30;;;;;;;7.97;3.40;;;16.50;79.70;;;;;;5039157;28;20450;-83
2021/11/09 11:13:18;;;;;;;3.53;3.23;;;16.90;77.30;;;;;;5039516;28;20483;-83
2021/11/09 11:16:00;;;;;;;4.13;3.60;;;17.30;77.20;;;;;;5039988;28;20462;-83
2021/11/09 11:18:32;;;;;;;4.60;4.20;;;17.30;73.20;;;;;;5039730;28;20434;-83
2021/11/09 11:20:59;;;;;;;4.57;4.17;;;17.50;73.30;;;;;;5038957;28;20478;-84
2021/11/09 11:23:28;;;;;;;4.40;3.47;;;17.60;72.60;;;;;;5038581;28;20486;-83
2021/11/09 11:25:56;;;;;;;4.07;3.53;;;17.90;72.40;;;;;;5038739;28;20508;-83
2021/11/09 11:28:25;;;;;;;3.97;3.57;;;18.10;69.50;;;;;;5038371;28;21017;-83
2021/11/09 11:30:53;;;;;;;6.50;3.40;;;18.10;68.70;;;;;;5038422;28;20546;-83
2021/11/09 11:33:20;;;;;;;3.83;3.43;;;18.00;68.90;;;;;;5038302;28;20452;-83
2021/11/09 11:35:49;;;;;;;5.80;3.73;;;18.20;67.60;;;;;;5037945;28;20470;-83
2021/11/09 11:38:18;;;;;;;5.53;3.83;;;18.40;67.60;;;;;;5038385;28;20456;-84
2021/11/09 11:40:46;;;;;;;5.53;3.60;;;18.90;66.70;;;;;;5038477;28;20451;-84
2021/11/09 11:43:12;;;;;;;4.17;2.80;;;19.20;64.50;;;;;;5038105;28;20456;-83
2021/11/09 11:45:49;;;;;;;4.40;3.20;;;19.50;63.80;;;;;;5037890;28;20457;-83
2021/11/09 11:48:16;;;;;;;3.40;3.10;;;19.90;61.60;;;;;;5038129;28;20494;-83
2021/11/09 11:50:45;;;;;;;4.37;3.10;;;19.90;59.80;;;;;;5039119;28;20451;-83
2021/11/09 11:53:12;;;;;;;5.17;2.60;;;19.60;58.90;;;;;;5040225;28;20456;-83
2021/11/09 11:55:39;;;;;;;4.43;3.27;;;19.50;60.30;;;;;;5037765;28;20531;-83
2021/11/09 11:58:07;;;;;;;3.03;2.77;;;20.00;60.40;;;;;;5037630;28;20456;-83
2021/11/09 12:00:55;;;;;;;5.17;3.33;;;20.00;58.20;;;;;;5037774;28;20814;-83
2021/11/09 12:03:43;;;;;;;4.40;3.20;;;19.70;58.30;;;;;;5038016;28;20439;-84
2021/11/09 12:06:23;;;;;;;2.80;2.60;;;19.80;57.30;;;;;;5038404;28;20440;-83
2021/11/09 12:08:51;;;;;;;4.13;3.13;;;19.60;58.10;;;;;;5037904;28;20492;-83
2021/11/09 12:11:40;;;;;;;3.87;2.90;;;19.50;57.90;;;;;;5037659;28;20530;-83
2021/11/09 12:14:09;;;;;;;4.37;3.50;;;19.50;57.90;;;;;;5038159;28;20442;-84
2021/11/09 12:16:52;;;;;;;4.30;3.17;;;19.70;58.20;;;;;;5037530;28;20456;-83
2021/11/09 12:19:57;;;;;;;4.03;2.90;;;19.80;57.30;;;;;;5036964;28;20533;-83
2021/11/09 12:22:26;;;;;;;4.50;3.93;;;19.60;57.20;;;;;;5033626;28;20483;-83
2021/11/09 12:24:56;;;;;;;3.20;2.50;;;19.70;57.30;;;;;;5037164;28;20448;-83
2021/11/09 12:27:29;;;;;;;3.80;2.97;;;19.80;57.40;;;;;;5037744;28;20477;-84
2021/11/09 12:29:56;;;;;;;3.63;3.33;;;19.90;57.00;;;;;;5038414;28;20507;-83
2021/11/09 12:32:43;;;;;;;3.57;2.80;;;20.40;56.30;;;;;;5037063;28;20475;-83
2021/11/09 12:35:24;;;;;;;4.50;3.27;;;20.70;55.20;;;;;;5037341;28;20966;-84
2021/11/09 12:38:12;;;;;;;3.03;2.83;;;21.10;55.00;;;;;;5037496;28;20456;-84
2021/11/09 12:40:40;;;;;;;3.87;3.60;;;21.30;53.70;;;;;;5037019;28;20460;-83
2021/11/09 12:43:10;;;;;;;3.23;2.93;;;21.00;53.00;;;;;;5036925;28;20452;-83
2021/11/09 12:45:38;;;;;;;2.73;2.20;;;21.00;54.00;;;;;;5038010;28;20429;-83
2021/11/09 12:48:09;;;;;;;6.53;3.50;;;21.00;53.10;;;;;;5036732;28;20452;-84
2021/11/09 12:50:39;;;;;;;4.77;3.83;;;21.00;53.50;;;;;;5037214;28;20456;-84
2021/11/09 12:53:08;;;;;;;4.83;3.67;;;20.90;53.10;;;;;;5037017;28;20468;-83
2021/11/09 12:55:36;;;;;;;4.93;2.87;;;20.70;53.10;;;;;;5037118;28;20448;-83
2021/11/09 12:58:14;;;;;;;4.23;3.40;;;20.70;53.50;;;;;;5036742;28;20443;-84
2021/11/09 13:00:44;;;;;;;4.10;2.83;;;20.90;53.20;;;;;;5036911;28;20530;-83
2021/11/09 13:03:29;;;;;;;4.23;2.60;;;20.40;53.10;;;;;;5036811;28;20830;-84
2021/11/09 13:06:04;;;;;;;5.27;3.50;;;20.60;52.60;;;;;;5037453;28;20776;-83
2021/11/09 13:08:41;;;;;;;3.33;2.70;;;20.10;52.50;;;;;;5036628;28;20495;-84
2021/11/09 13:11:31;;;;;;;5.17;2.90;;;19.80;53.10;;;;;;5036171;28;20480;-83
2021/11/09 13:14:04;;;;;;;2.87;2.67;;;19.90;53.80;;;;;;5036308;28;20586;-84
2021/11/09 13:16:30;;;;;;;3.67;3.33;;;20.20;53.50;;;;;;5036893;28;20433;-84
2021/11/09 13:19:05;;;;;;;7.13;3.70;;;20.90;53.60;;;;;;5036602;28;20448;-84
2021/11/09 13:21:32;;;;;;;4.90;3.20;;;21.10;52.50;;;;;;5036591;28;20486;-84
2021/11/09 13:23:59;;;;;;;4.33;3.77;;;20.70;51.30;;;;;;5035566;28;20448;-83
2021/11/09 13:26:26;;;;;;;3.00;2.67;;;20.20;51.50;;;;;;5035506;28;20452;-86
2021/11/09 13:28:53;;;;;;;4.07;2.90;;;20.10;52.50;;;;;;5035566;28;20499;-86
2021/11/09 13:31:29;;;;;;;3.40;2.43;;;20.00;52.90;;;;;;5035418;28;20480;-86
2021/11/09 13:34:16;;;;;;;2.53;2.33;;;19.70;53.00;;;;;;5014535;28;20458;-86
2021/11/09 13:40:24;;;;;;;4.40;2.90;;;19.40;53.20;;;;;;4939384;28;20435;-86
2021/11/09 13:43:18;;;;;;;4.50;2.70;;;18.90;54.00;;;;;;4979201;28;21053;-84
2021/11/09 13:46:04;;;;;;;3.40;2.80;;;18.60;53.40;;;;;;5041348;28;20455;-86
2021/11/09 13:48:36;;;;;;;2.97;2.70;;;18.20;54.10;;;;;;5040420;28;20528;-86
2021/11/09 13:51:32;;;;;;;3.20;2.87;;;17.80;54.50;;;;;;5040291;28;21021;-86
2021/11/09 13:54:14;;;;;;;3.33;3.03;;;17.70;54.90;;;;;;5039801;28;20474;-87
2021/11/09 13:56:46;;;;;;;2.37;2.17;;;17.60;55.00;;;;;;5041280;28;20430;-87
2021/11/09 13:59:48;;;;;;;3.13;2.83;;;17.60;55.50;;;;;;5040151;28;20541;-86
2021/11/09 14:12:52;;;;;;;3.70;3.40;;;17.80;55.30;;;;;;5040410;28;20500;-85
2021/11/09 14:15:45;;;;;;;3.10;2.80;;;17.70;54.70;;;;;;5051049;28;20445;-84
2021/11/09 14:18:17;;;;;;;3.20;3.00;;;17.60;55.00;;;;;;5058146;28;20470;-83
2021/11/09 14:20:51;;;;;;;2.90;2.70;;;17.50;55.50;;;;;;5058154;28;20434;-84
2021/11/09 14:24:01;;;;;;;2.77;2.50;;;17.30;55.80;;;;;;5058141;28;20496;-85
2021/11/09 14:34:09;;;;;;;3.67;3.37;;;16.60;56.80;;;;;;5027230;28;20880;-85
2021/11/09 14:36:42;;;;;;;9.60;4.37;;;16.00;57.40;;;;;;5037565;28;20871;-84
2021/11/09 14:39:44;;;;;;;3.53;2.80;;;15.60;58.20;;;;;;5018458;28;20442;-85
2021/11/09 14:45:52;;;;;;;3.50;2.53;;;14.70;59.70;;;;;;4912506;29;20443;-86
2021/11/09 14:48:25;;;;;;;4.13;3.40;;;14.30;61.50;;;;;;4965470;28;20441;-86
2021/11/09 14:50:59;;;;;;;4.70;3.60;;;14.00;61.40;;;;;;5038765;28;20469;-85
2021/11/09 14:53:30;;;;;;;5.00;3.20;;;13.90;62.00;;;;;;5037507;28;20957;-88
2021/11/09 14:56:04;;;;;;;2.90;2.40;;;13.60;62.80;;;;;;5038345;28;20551;-85
2021/11/09 14:58:38;;;;;;;4.27;3.20;;;13.40;63.20;;;;;;5041356;28;21028;-84
2021/11/09 15:01:21;;;;;;;2.90;2.60;;;13.10;64.20;;;;;;5042227;28;20490;-85
2021/11/09 15:04:04;;;;;;;4.37;2.80;;;12.90;65.20;;;;;;5041044;28;20432;-87
2021/11/09 15:06:40;;;;;;;3.40;3.17;;;12.60;66.40;;;;;;5040117;28;20460;-86
2021/11/09 15:09:19;;;;;;;4.27;3.70;;;12.40;66.90;;;;;;5037916;28;20483;-87
2021/11/09 15:12:01;;;;;;;4.00;3.00;;;12.20;67.80;;;;;;5041254;28;20491;-86
2021/11/09 15:26:16;;;;;;;3.57;3.07;;;11.00;73.00;;;;;;5040024;28;20431;-86
2021/11/09 15:28:48;;;;;;;7.00;3.80;;;10.90;73.70;;;;;;5039732;28;20476;-86
2021/11/09 15:34:14;;;;;;;7.13;3.95;;;10.70;75.10;;;;;;5035570;28;20463;-87
2021/11/09 15:36:53;;;;;;;4.68;3.42;;;10.50;75.70;;;;;;5042153;28;20185;-87
2021/11/09 15:39:25;;;;;;;6.97;3.83;;;10.40;76.40;;;;;;5044393;28;20189;-87
2021/11/09 15:41:52;;;;;;;4.22;3.75;;;10.30;77.40;;;;;;5042337;28;20238;-87
2021/11/09 15:44:19;;;;;;;6.25;4.40;;;10.20;77.80;;;;;;5040312;28;20618;-87
2021/11/09 15:47:00;;;;;;;7.18;4.07;;;10.10;78.60;;;;;;5039667;28;20200;-87
2021/11/09 15:54:31;;;;;;;6.25;4.15;;;9.80;81.30;;;;;;5031287;28;20214;-87
2021/11/09 16:03:36;;;;;;;5.55;4.25;;;9.40;83.90;;;;;;5040281;28;20207;-87
2021/11/09 16:06:21;;;;;;;4.63;3.63;;;9.20;84.90;;;;;;5041065;28;20198;-87
2021/11/09 16:09:17;;;;;;;10.52;5.40;;;9.10;86.70;;;;;;5048089;28;20222;-86
2021/11/09 16:11:45;;;;;;;8.57;5.03;;;9.00;86.80;;;;;;5039846;28;20815;-86
2021/11/09 16:14:13;;;;;;;7.93;4.32;;;8.90;87.30;;;;;;5036327;28;20294;-87
2021/11/09 16:16:40;;;;;;;5.60;4.53;;;8.80;88.10;;;;;;5036595;28;20221;-87
2021/11/09 16:19:08;;;;;;;5.03;4.65;;;8.70;88.60;;;;;;5037344;28;20208;-87
2021/11/09 16:21:35;;;;;;;8.43;5.07;;;8.60;89.40;;;;;;5036653;28;20222;-86
2021/11/09 16:24:03;;;;;;;5.82;5.15;;;8.60;90.00;;;;;;5036576;28;20215;-87
2021/11/09 16:26:30;;;;;;;5.50;4.95;;;8.50;90.20;;;;;;5037634;28;20230;-86
2021/11/09 16:29:31;;;;;;;6.35;5.75;;;8.40;90.40;;;;;;5039398;28;20258;-88
2021/11/09 16:31:59;;;;;;;8.50;6.15;;;8.30;90.70;;;;;;5040824;28;20300;-86
2021/11/09 16:34:30;;;;;;;7.45;6.75;;;8.20;91.10;;;;;;5037249;28;20202;-87
2021/11/09 16:36:58;;;;;;;7.22;5.90;;;8.10;91.40;;;;;;5036505;28;20385;-86
2021/11/09 16:39:33;;;;;;;5.07;4.57;;;8.00;91.70;;;;;;5038021;28;20202;-87
2021/11/09 16:42:00;;;;;;;9.15;6.47;;;7.90;92.10;;;;;;5038062;28;20229;-85
2021/11/09 16:44:27;;;;;;;6.00;5.45;;;7.80;92.40;;;;;;5037630;28;20214;-85